Al Asad, Iraq

6:15 AM AST on August 29, 2014 (GMT +0300)
Baghdad | Change Station
CLOSE
Current Station
Airport
Location: Baghdad,
Elevation: 112 ft
Nearby Weather Stations

Elev 112 ft 33.25 °N, 44.23 °E | Updated 20 minutes ago

Smoke
Smoke Haze
90 °F
Feels Like 90 °F
N
4
Wind Variable Wind from NE

Today
High -- | Low -- °F
--% Chance of Precip.
Yesterday
High -- | Low -- °F
Precip. -- in
5:33 AM 6:32 PM
Waxing Crescent, 11% visible
Pressure 29.56 in
Visibility 5.0 miles
Clouds Few 100 ft
Few 18000 ft
Dew Point 37 °F
Humidity 16%
Rainfall 0.00 in
Snow Depth Not available.
UV 0 out of 12
Pollen Not available.
Air Quality Not available.
Flu Activity Not available.
METAR KQTZ 290255Z 05003KT 8000 FU HZ FEW001 FEW180 32/03 A2956 RMK FU FEW001 SLP006 WND DATA ESTMD ALSTG/SLP ESTMD 52003

More Conditions Fewer Conditions

Pressure 29.56 in
Visibility 5.0 miles
Clouds Few 100 ft
Few 18000 ft
Dew Point 37 °F
Humidity 16%
Rainfall 0.00 in
Snow Depth Not available.
UV 0 out of 12
Pollen Not available.
Air Quality Not available.
Flu Activity Not available.
METAR KQTZ 290255Z 05003KT 8000 FU HZ FEW001 FEW180 32/03 A2956 RMK FU FEW001 SLP006 WND DATA ESTMD ALSTG/SLP ESTMD 52003

More Conditions Fewer Conditions

10-Day Weather Forecast

Almanac

Astronomy

Aug. 29, 2014 Rise Set
Actual Time 5:33 AM AST 6:32 PM AST
Civil Twilight 5:08 AM AST 6:57 PM AST
Nautical Twilight 4:37 AM AST 7:28 PM AST
Astronomical Twilight 4:06 AM AST 7:59 PM AST
Moon 8:50 AM AST 8:29 PM AST
Length of Visible Light 13h 49m
Length of Day
12h 58m
Tomorrow will be 1m 59s shorter.
Waxing Crescent, 11% of the Moon is Illuminated
Aug 28
Waxing Crescent
Sep 2
First Quarter
Sep 8
Full
Sep 15
Last Quarter
Sep 24
New

Yesterday's Extremes

Country Highs Country Lows

Community

WunderPhotos

Upload Photos

1,748,146 photos uploaded!

Nearby

Snow Depth

Not available.

Earthquake Activity

City Distance Mag. Time & Date
No recent earthquake activity has been reported nearby.
Minimum magnitude displayed is 2.5.

Coastal Water Temperatures

Place Temperature
No Stations Reporting

Nearby Weather Stations